sensor_id;sensor_type;location;lat;lon;timestamp;temperature;humidity
2158;DHT22;41972;48.774;9.282;2023-08-24T00:00:20;18.20;99.90
2158;DHT22;41972;48.774;9.282;2023-08-24T00:02:46;18.10;99.90
2158;DHT22;41972;48.774;9.282;2023-08-24T00:05:12;18.10;99.90
2158;DHT22;41972;48.774;9.282;2023-08-24T00:07:38;18.10;99.90
2158;DHT22;41972;48.774;9.282;2023-08-24T00:10:04;18.10;99.90
2158;DHT22;41972;48.774;9.282;2023-08-24T00:12:30;18.10;99.90
2158;DHT22;41972;48.774;9.282;2023-08-24T00:14:55;18.10;99.90
2158;DHT22;41972;48.774;9.282;2023-08-24T00:17:21;17.90;99.90
2158;DHT22;41972;48.774;9.282;2023-08-24T00:19:48;18.00;99.90
2158;DHT22;41972;48.774;9.282;2023-08-24T00:22:14;18.00;99.90
2158;DHT22;41972;48.774;9.282;2023-08-24T00:24:39;18.10;99.90
2158;DHT22;41972;48.774;9.282;2023-08-24T00:27:05;18.00;99.90
2158;DHT22;41972;48.774;9.282;2023-08-24T00:29:30;17.90;99.90
2158;DHT22;41972;48.774;9.282;2023-08-24T00:31:56;17.90;99.90
2158;DHT22;41972;48.774;9.282;2023-08-24T00:34:22;17.90;99.90
2158;DHT22;41972;48.774;9.282;2023-08-24T00:36:48;17.90;99.90
2158;DHT22;41972;48.774;9.282;2023-08-24T00:39:14;17.90;99.90
2158;DHT22;41972;48.774;9.282;2023-08-24T00:41:41;17.90;99.90
2158;DHT22;41972;48.774;9.282;2023-08-24T00:44:06;17.80;99.90
2158;DHT22;41972;48.774;9.282;2023-08-24T00:46:33;18.00;99.90
2158;DHT22;41972;48.774;9.282;2023-08-24T00:48:59;18.20;99.90
2158;DHT22;41972;48.774;9.282;2023-08-24T00:51:25;18.40;99.90
2158;DHT22;41972;48.774;9.282;2023-08-24T00:53:51;18.50;99.90
2158;DHT22;41972;48.774;9.282;2023-08-24T00:56:16;18.50;99.90
2158;DHT22;41972;48.774;9.282;2023-08-24T00:58:42;18.50;99.90
2158;DHT22;41972;48.774;9.282;2023-08-24T01:01:09;18.50;99.90
2158;DHT22;41972;48.774;9.282;2023-08-24T01:03:35;18.50;99.90
2158;DHT22;41972;48.774;9.282;2023-08-24T01:06:01;18.50;99.90
2158;DHT22;41972;48.774;9.282;2023-08-24T01:08:26;18.40;99.90
2158;DHT22;41972;48.774;9.282;2023-08-24T01:11:25;18.10;99.90
2158;DHT22;41972;48.774;9.282;2023-08-24T01:14:23;17.90;99.90
2158;DHT22;41972;48.774;9.282;2023-08-24T01:16:58;17.80;99.90
2158;DHT22;41972;48.774;9.282;2023-08-24T01:20:03;17.70;99.90
2158;DHT22;41972;48.774;9.282;2023-08-24T01:25:05;17.70;99.90
2158;DHT22;41972;48.774;9.282;2023-08-24T01:27:34;17.60;99.90
2158;DHT22;41972;48.774;9.282;2023-08-24T01:30:01;17.70;99.90
2158;DHT22;41972;48.774;9.282;2023-08-24T01:32:30;17.60;99.90
2158;DHT22;41972;48.774;9.282;2023-08-24T01:34:57;17.30;99.90
2158;DHT22;41972;48.774;9.282;2023-08-24T01:37:22;17.20;99.90
2158;DHT22;41972;48.774;9.282;2023-08-24T01:40:04;17.30;99.90
2158;DHT22;41972;48.774;9.282;2023-08-24T01:42:37;17.30;99.90
2158;DHT22;41972;48.774;9.282;2023-08-24T01:45:07;17.30;99.90
2158;DHT22;41972;48.774;9.282;2023-08-24T01:47:34;17.30;99.90
2158;DHT22;41972;48.774;9.282;2023-08-24T01:50:01;17.40;99.90
2158;DHT22;41972;48.774;9.282;2023-08-24T01:52:27;17.50;99.90
2158;DHT22;41972;48.774;9.282;2023-08-24T01:54:53;17.30;99.90
2158;DHT22;41972;48.774;9.282;2023-08-24T01:57:19;17.30;99.90
2158;DHT22;41972;48.774;9.282;2023-08-24T01:59:44;17.20;99.90
2158;DHT22;41972;48.774;9.282;2023-08-24T02:02:10;17.40;99.90
2158;DHT22;41972;48.774;9.282;2023-08-24T02:04:36;17.30;99.90
2158;DHT22;41972;48.774;9.282;2023-08-24T02:07:01;17.40;99.90
2158;DHT22;41972;48.774;9.282;2023-08-24T02:09:27;17.60;99.90
2158;DHT22;41972;48.774;9.282;2023-08-24T02:11:53;17.70;99.90
2158;DHT22;41972;48.774;9.282;2023-08-24T02:14:18;17.50;99.90
2158;DHT22;41972;48.774;9.282;2023-08-24T02:16:44;17.50;99.90
2158;DHT22;41972;48.774;9.282;2023-08-24T02:19:09;17.40;99.90
2158;DHT22;41972;48.774;9.282;2023-08-24T02:21:36;17.30;99.90
2158;DHT22;41972;48.774;9.282;2023-08-24T02:24:02;17.20;99.90
2158;DHT22;41972;48.774;9.282;2023-08-24T02:26:28;17.10;99.90
2158;DHT22;41972;48.774;9.282;2023-08-24T02:28:53;17.00;99.90
2158;DHT22;41972;48.774;9.282;2023-08-24T02:31:19;16.90;99.90
2158;DHT22;41972;48.774;9.282;2023-08-24T02:33:44;16.90;99.90
2158;DHT22;41972;48.774;9.282;2023-08-24T02:36:10;16.80;99.90
2158;DHT22;41972;48.774;9.282;2023-08-24T02:38:36;16.80;99.90
2158;DHT22;41972;48.774;9.282;2023-08-24T02:41:05;16.70;99.90
2158;DHT22;41972;48.774;9.282;2023-08-24T02:43:31;16.80;99.90
2158;DHT22;41972;48.774;9.282;2023-08-24T02:46:03;16.80;99.90
2158;DHT22;41972;48.774;9.282;2023-08-24T02:48:30;16.80;99.90
2158;DHT22;41972;48.774;9.282;2023-08-24T02:50:57;16.70;99.90
2158;DHT22;41972;48.774;9.282;2023-08-24T02:53:23;16.60;99.90
2158;DHT22;41972;48.774;9.282;2023-08-24T02:55:49;16.60;99.90
2158;DHT22;41972;48.774;9.282;2023-08-24T02:58:15;16.70;99.90
2158;DHT22;41972;48.774;9.282;2023-08-24T03:00:40;16.70;99.90
2158;DHT22;41972;48.774;9.282;2023-08-24T03:03:06;16.70;99.90
2158;DHT22;41972;48.774;9.282;2023-08-24T03:05:32;16.70;99.90
2158;DHT22;41972;48.774;9.282;2023-08-24T03:08:00;16.80;99.90
2158;DHT22;41972;48.774;9.282;2023-08-24T03:10:26;16.70;99.90
2158;DHT22;41972;48.774;9.282;2023-08-24T03:12:52;16.70;99.90
2158;DHT22;41972;48.774;9.282;2023-08-24T03:15:18;16.80;99.90
2158;DHT22;41972;48.774;9.282;2023-08-24T03:17:43;16.90;99.90
2158;DHT22;41972;48.774;9.282;2023-08-24T03:20:09;16.80;99.90
2158;DHT22;41972;48.774;9.282;2023-08-24T03:22:36;16.80;99.90
2158;DHT22;41972;48.774;9.282;2023-08-24T03:25:03;16.80;99.90
2158;DHT22;41972;48.774;9.282;2023-08-24T03:27:29;16.80;99.90
2158;DHT22;41972;48.774;9.282;2023-08-24T03:29:54;16.90;99.90
2158;DHT22;41972;48.774;9.282;2023-08-24T03:32:20;17.00;99.90
2158;DHT22;41972;48.774;9.282;2023-08-24T03:34:45;16.90;99.90
2158;DHT22;41972;48.774;9.282;2023-08-24T03:37:11;16.80;99.90
2158;DHT22;41972;48.774;9.282;2023-08-24T03:39:38;16.80;99.90
2158;DHT22;41972;48.774;9.282;2023-08-24T03:42:03;16.80;99.90
2158;DHT22;41972;48.774;9.282;2023-08-24T03:44:29;16.80;99.90
2158;DHT22;41972;48.774;9.282;2023-08-24T03:46:56;16.70;99.90
2158;DHT22;41972;48.774;9.282;2023-08-24T03:49:21;16.70;99.90
2158;DHT22;41972;48.774;9.282;2023-08-24T03:51:47;16.60;99.90
2158;DHT22;41972;48.774;9.282;2023-08-24T03:54:12;16.60;99.90
2158;DHT22;41972;48.774;9.282;2023-08-24T03:56:39;16.60;99.90
2158;DHT22;41972;48.774;9.282;2023-08-24T03:59:04;16.80;99.90
2158;DHT22;41972;48.774;9.282;2023-08-24T04:01:30;16.70;99.90
2158;DHT22;41972;48.774;9.282;2023-08-24T04:03:55;16.80;99.90
2158;DHT22;41972;48.774;9.282;2023-08-24T04:06:22;16.80;99.90
2158;DHT22;41972;48.774;9.282;2023-08-24T04:08:48;17.00;99.90
2158;DHT22;41972;48.774;9.282;2023-08-24T04:11:13;17.10;99.90
2158;DHT22;41972;48.774;9.282;2023-08-24T04:13:39;17.10;99.90
2158;DHT22;41972;48.774;9.282;2023-08-24T04:16:04;17.10;99.90
2158;DHT22;41972;48.774;9.282;2023-08-24T04:18:30;17.20;99.90
2158;DHT22;41972;48.774;9.282;2023-08-24T04:20:56;17.40;99.90
2158;DHT22;41972;48.774;9.282;2023-08-24T04:23:25;17.60;99.90
2158;DHT22;41972;48.774;9.282;2023-08-24T04:25:54;17.60;99.90
2158;DHT22;41972;48.774;9.282;2023-08-24T04:28:20;17.50;99.90
2158;DHT22;41972;48.774;9.282;2023-08-24T04:30:50;17.50;99.90
2158;DHT22;41972;48.774;9.282;2023-08-24T04:33:16;17.60;99.90
2158;DHT22;41972;48.774;9.282;2023-08-24T04:35:42;17.70;99.90
2158;DHT22;41972;48.774;9.282;2023-08-24T04:38:07;17.60;99.90
2158;DHT22;41972;48.774;9.282;2023-08-24T04:40:54;17.70;99.90
2158;DHT22;41972;48.774;9.282;2023-08-24T04:43:20;17.80;99.90
2158;DHT22;41972;48.774;9.282;2023-08-24T04:45:48;17.80;99.90
2158;DHT22;41972;48.774;9.282;2023-08-24T04:48:14;17.90;99.90
2158;DHT22;41972;48.774;9.282;2023-08-24T04:50:43;17.90;99.90
2158;DHT22;41972;48.774;9.282;2023-08-24T04:53:09;17.90;99.90
2158;DHT22;41972;48.774;9.282;2023-08-24T04:55:34;17.70;99.90
2158;DHT22;41972;48.774;9.282;2023-08-24T04:58:00;17.70;99.90
2158;DHT22;41972;48.774;9.282;2023-08-24T05:00:25;17.80;99.90
2158;DHT22;41972;48.774;9.282;2023-08-24T05:02:51;18.00;99.90
2158;DHT22;41972;48.774;9.282;2023-08-24T05:05:16;18.20;99.90
2158;DHT22;41972;48.774;9.282;2023-08-24T05:07:42;18.10;99.90
2158;DHT22;41972;48.774;9.282;2023-08-24T05:10:08;18.20;99.90
2158;DHT22;41972;48.774;9.282;2023-08-24T05:12:34;18.20;99.90
2158;DHT22;41972;48.774;9.282;2023-08-24T05:15:05;18.20;99.90
2158;DHT22;41972;48.774;9.282;2023-08-24T05:17:30;18.10;99.90
2158;DHT22;41972;48.774;9.282;2023-08-24T05:19:58;18.20;99.90
2158;DHT22;41972;48.774;9.282;2023-08-24T05:22:24;18.40;99.90
2158;DHT22;41972;48.774;9.282;2023-08-24T05:24:49;18.60;99.90
2158;DHT22;41972;48.774;9.282;2023-08-24T05:27:15;18.80;99.90
2158;DHT22;41972;48.774;9.282;2023-08-24T05:29:43;18.90;99.90
2158;DHT22;41972;48.774;9.282;2023-08-24T05:32:09;18.70;99.90
2158;DHT22;41972;48.774;9.282;2023-08-24T05:34:35;19.00;99.90
2158;DHT22;41972;48.774;9.282;2023-08-24T05:37:00;19.30;99.90
2158;DHT22;41972;48.774;9.282;2023-08-24T05:39:26;19.60;99.90
2158;DHT22;41972;48.774;9.282;2023-08-24T05:41:52;20.10;99.90
2158;DHT22;41972;48.774;9.282;2023-08-24T05:44:21;20.60;99.90
2158;DHT22;41972;48.774;9.282;2023-08-24T05:46:47;20.80;99.90
2158;DHT22;41972;48.774;9.282;2023-08-24T05:49:13;20.80;99.90
2158;DHT22;41972;48.774;9.282;2023-08-24T05:51:38;20.80;99.90
2158;DHT22;41972;48.774;9.282;2023-08-24T05:54:04;20.80;99.90
2158;DHT22;41972;48.774;9.282;2023-08-24T05:56:30;20.90;99.90
2158;DHT22;41972;48.774;9.282;2023-08-24T05:58:58;21.00;99.90
2158;DHT22;41972;48.774;9.282;2023-08-24T06:01:24;21.00;99.90
2158;DHT22;41972;48.774;9.282;2023-08-24T06:03:50;21.20;99.90
2158;DHT22;41972;48.774;9.282;2023-08-24T06:06:16;21.20;99.90
2158;DHT22;41972;48.774;9.282;2023-08-24T06:08:42;20.60;99.90
2158;DHT22;41972;48.774;9.282;2023-08-24T06:11:07;20.60;99.90
2158;DHT22;41972;48.774;9.282;2023-08-24T06:13:33;20.60;99.90
2158;DHT22;41972;48.774;9.282;2023-08-24T06:16:00;20.60;99.90
2158;DHT22;41972;48.774;9.282;2023-08-24T06:18:26;20.80;99.90
2158;DHT22;41972;48.774;9.282;2023-08-24T06:20:52;20.60;99.90
2158;DHT22;41972;48.774;9.282;2023-08-24T06:23:18;20.90;99.90
2158;DHT22;41972;48.774;9.282;2023-08-24T06:25:44;21.50;99.90
2158;DHT22;41972;48.774;9.282;2023-08-24T06:28:11;22.00;99.90
2158;DHT22;41972;48.774;9.282;2023-08-24T06:30:40;21.90;99.90
2158;DHT22;41972;48.774;9.282;2023-08-24T06:33:07;21.60;99.90
2158;DHT22;41972;48.774;9.282;2023-08-24T06:35:36;22.00;99.90
2158;DHT22;41972;48.774;9.282;2023-08-24T06:38:03;22.30;99.90
2158;DHT22;41972;48.774;9.282;2023-08-24T06:40:28;23.30;99.90
2158;DHT22;41972;48.774;9.282;2023-08-24T06:42:55;24.00;99.90
2158;DHT22;41972;48.774;9.282;2023-08-24T06:45:20;24.00;99.90
2158;DHT22;41972;48.774;9.282;2023-08-24T06:47:46;23.70;99.90
2158;DHT22;41972;48.774;9.282;2023-08-24T06:50:11;23.80;99.90
2158;DHT22;41972;48.774;9.282;2023-08-24T06:52:37;23.50;99.90
2158;DHT22;41972;48.774;9.282;2023-08-24T06:55:04;23.40;99.90
2158;DHT22;41972;48.774;9.282;2023-08-24T06:57:30;22.80;99.90
2158;DHT22;41972;48.774;9.282;2023-08-24T06:59:55;22.30;99.90
2158;DHT22;41972;48.774;9.282;2023-08-24T07:02:21;22.30;99.90
2158;DHT22;41972;48.774;9.282;2023-08-24T07:04:48;22.20;99.90
2158;DHT22;41972;48.774;9.282;2023-08-24T07:07:13;22.10;99.90
2158;DHT22;41972;48.774;9.282;2023-08-24T07:09:39;21.70;99.90
2158;DHT22;41972;48.774;9.282;2023-08-24T07:12:05;21.50;99.90
2158;DHT22;41972;48.774;9.282;2023-08-24T07:14:38;21.60;99.90
2158;DHT22;41972;48.774;9.282;2023-08-24T07:17:03;21.80;99.90
2158;DHT22;41972;48.774;9.282;2023-08-24T07:19:29;22.00;99.90
2158;DHT22;41972;48.774;9.282;2023-08-24T07:21:54;22.30;99.90
2158;DHT22;41972;48.774;9.282;2023-08-24T07:24:20;22.70;99.90
2158;DHT22;41972;48.774;9.282;2023-08-24T07:26:46;23.50;99.90
2158;DHT22;41972;48.774;9.282;2023-08-24T07:29:12;25.20;99.90
2158;DHT22;41972;48.774;9.282;2023-08-24T07:31:38;26.00;99.90
2158;DHT22;41972;48.774;9.282;2023-08-24T07:34:03;26.80;99.90
2158;DHT22;41972;48.774;9.282;2023-08-24T07:36:32;27.00;99.90
2158;DHT22;41972;48.774;9.282;2023-08-24T07:38:58;26.60;99.90
2158;DHT22;41972;48.774;9.282;2023-08-24T07:41:23;27.40;99.90
2158;DHT22;41972;48.774;9.282;2023-08-24T07:43:49;28.70;99.90
2158;DHT22;41972;48.774;9.282;2023-08-24T07:46:14;28.90;99.90
2158;DHT22;41972;48.774;9.282;2023-08-24T07:48:40;28.30;99.90
2158;DHT22;41972;48.774;9.282;2023-08-24T07:51:06;27.10;99.90
2158;DHT22;41972;48.774;9.282;2023-08-24T07:53:32;27.30;99.90
2158;DHT22;41972;48.774;9.282;2023-08-24T07:55:58;29.00;99.90
2158;DHT22;41972;48.774;9.282;2023-08-24T07:58:25;29.20;99.90
2158;DHT22;41972;48.774;9.282;2023-08-24T08:00:50;31.00;98.00
2158;DHT22;41972;48.774;9.282;2023-08-24T08:03:19;30.10;99.90
2158;DHT22;41972;48.774;9.282;2023-08-24T08:05:46;30.50;98.10
2158;DHT22;41972;48.774;9.282;2023-08-24T08:08:13;31.10;99.90
2158;DHT22;41972;48.774;9.282;2023-08-24T08:10:39;33.20;99.90
2158;DHT22;41972;48.774;9.282;2023-08-24T08:13:04;35.20;99.90
2158;DHT22;41972;48.774;9.282;2023-08-24T08:15:30;35.20;56.00
2158;DHT22;41972;48.774;9.282;2023-08-24T08:17:56;37.30;49.80
2158;DHT22;41972;48.774;9.282;2023-08-24T08:20:21;37.30;42.50
2158;DHT22;41972;48.774;9.282;2023-08-24T08:22:47;39.80;26.20
2158;DHT22;41972;48.774;9.282;2023-08-24T08:25:12;36.40;27.10
2158;DHT22;41972;48.774;9.282;2023-08-24T08:27:38;36.40;25.60
2158;DHT22;41972;48.774;9.282;2023-08-24T08:30:05;34.70;32.50
2158;DHT22;41972;48.774;9.282;2023-08-24T08:32:31;36.70;27.20
2158;DHT22;41972;48.774;9.282;2023-08-24T08:34:56;37.50;24.40
2158;DHT22;41972;48.774;9.282;2023-08-24T08:37:26;37.70;22.10
2158;DHT22;41972;48.774;9.282;2023-08-24T08:39:52;39.80;16.90
2158;DHT22;41972;48.774;9.282;2023-08-24T08:42:17;37.90;16.80
2158;DHT22;41972;48.774;9.282;2023-08-24T08:44:45;39.80;11.40
2158;DHT22;41972;48.774;9.282;2023-08-24T08:47:13;38.90;9.40
2158;DHT22;41972;48.774;9.282;2023-08-24T08:49:42;38.70;11.10
2158;DHT22;41972;48.774;9.282;2023-08-24T08:52:09;39.40;10.20
2158;DHT22;41972;48.774;9.282;2023-08-24T08:54:35;35.60;16.90
2158;DHT22;41972;48.774;9.282;2023-08-24T08:57:01;38.40;10.80
2158;DHT22;41972;48.774;9.282;2023-08-24T08:59:28;38.40;14.90
2158;DHT22;41972;48.774;9.282;2023-08-24T09:01:57;35.20;14.90
2158;DHT22;41972;48.774;9.282;2023-08-24T09:04:24;37.00;12.40
2158;DHT22;41972;48.774;9.282;2023-08-24T09:06:50;39.00;9.70
2158;DHT22;41972;48.774;9.282;2023-08-24T09:09:15;39.40;8.70
2158;DHT22;41972;48.774;9.282;2023-08-24T09:11:42;39.70;7.90
2158;DHT22;41972;48.774;9.282;2023-08-24T09:14:12;37.90;8.90
2158;DHT22;41972;48.774;9.282;2023-08-24T09:16:38;37.80;8.20
2158;DHT22;41972;48.774;9.282;2023-08-24T09:19:05;38.30;8.70
2158;DHT22;41972;48.774;9.282;2023-08-24T09:21:37;37.90;10.30
2158;DHT22;41972;48.774;9.282;2023-08-24T09:24:03;37.50;11.20
2158;DHT22;41972;48.774;9.282;2023-08-24T09:26:35;36.40;10.80
2158;DHT22;41972;48.774;9.282;2023-08-24T09:29:13;36.70;11.20
2158;DHT22;41972;48.774;9.282;2023-08-24T09:31:39;36.80;14.40
2158;DHT22;41972;48.774;9.282;2023-08-24T09:34:05;39.70;12.30
2158;DHT22;41972;48.774;9.282;2023-08-24T09:36:32;42.30;4.20
2158;DHT22;41972;48.774;9.282;2023-08-24T09:38:59;37.90;4.60
2158;DHT22;41972;48.774;9.282;2023-08-24T09:41:49;34.90;9.00
2158;DHT22;41972;48.774;9.282;2023-08-24T09:44:16;33.40;12.30
2158;DHT22;41972;48.774;9.282;2023-08-24T09:46:42;32.40;14.40
2158;DHT22;41972;48.774;9.282;2023-08-24T09:49:10;32.30;17.30
2158;DHT22;41972;48.774;9.282;2023-08-24T09:51:38;32.60;17.50
2158;DHT22;41972;48.774;9.282;2023-08-24T09:54:08;31.90;19.30
2158;DHT22;41972;48.774;9.282;2023-08-24T09:56:41;32.60;19.00
2158;DHT22;41972;48.774;9.282;2023-08-24T09:59:15;32.20;20.70
2158;DHT22;41972;48.774;9.282;2023-08-24T10:01:50;31.90;22.50
2158;DHT22;41972;48.774;9.282;2023-08-24T10:04:29;32.10;22.30
2158;DHT22;41972;48.774;9.282;2023-08-24T10:07:08;32.50;23.80
2158;DHT22;41972;48.774;9.282;2023-08-24T10:09:58;32.50;23.00
2158;DHT22;41972;48.774;9.282;2023-08-24T10:12:28;33.00;23.60
2158;DHT22;41972;48.774;9.282;2023-08-24T10:14:59;34.90;23.20
2158;DHT22;41972;48.774;9.282;2023-08-24T10:17:44;38.10;16.00
2158;DHT22;41972;48.774;9.282;2023-08-24T10:20:11;40.10;14.00
2158;DHT22;41972;48.774;9.282;2023-08-24T10:22:37;40.80;9.10
2158;DHT22;41972;48.774;9.282;2023-08-24T10:25:03;39.20;8.50
2158;DHT22;41972;48.774;9.282;2023-08-24T10:27:29;38.70;10.40
2158;DHT22;41972;48.774;9.282;2023-08-24T10:29:56;37.40;10.70
2158;DHT22;41972;48.774;9.282;2023-08-24T10:32:23;37.40;12.80
2158;DHT22;41972;48.774;9.282;2023-08-24T10:34:50;37.80;11.30
2158;DHT22;41972;48.774;9.282;2023-08-24T10:37:15;36.50;11.60
2158;DHT22;41972;48.774;9.282;2023-08-24T10:39:46;35.80;12.10
2158;DHT22;41972;48.774;9.282;2023-08-24T10:42:13;37.30;12.50
2158;DHT22;41972;48.774;9.282;2023-08-24T10:44:40;38.30;10.70
2158;DHT22;41972;48.774;9.282;2023-08-24T10:52:32;38.30;13.10
2158;DHT22;41972;48.774;9.282;2023-08-24T10:55:01;38.80;13.20
2158;DHT22;41972;48.774;9.282;2023-08-24T10:57:38;38.40;11.70
2158;DHT22;41972;48.774;9.282;2023-08-24T11:00:09;40.20;9.50
2158;DHT22;41972;48.774;9.282;2023-08-24T11:05:28;37.60;14.20
2158;DHT22;41972;48.774;9.282;2023-08-24T11:08:00;36.20;13.10
2158;DHT22;41972;48.774;9.282;2023-08-24T11:10:51;35.60;13.80
2158;DHT22;41972;48.774;9.282;2023-08-24T11:13:19;34.40;18.30
2158;DHT22;41972;48.774;9.282;2023-08-24T11:15:49;34.10;22.70
2158;DHT22;41972;48.774;9.282;2023-08-24T11:18:28;34.20;22.80
2158;DHT22;41972;48.774;9.282;2023-08-24T11:21:04;33.60;23.20
2158;DHT22;41972;48.774;9.282;2023-08-24T11:23:29;32.80;22.80
2158;DHT22;41972;48.774;9.282;2023-08-24T11:25:57;33.30;27.10
2158;DHT22;41972;48.774;9.282;2023-08-24T11:28:32;33.40;28.30
2158;DHT22;41972;48.774;9.282;2023-08-24T11:30:58;32.80;27.40
2158;DHT22;41972;48.774;9.282;2023-08-24T11:33:32;32.80;28.80
2158;DHT22;41972;48.774;9.282;2023-08-24T11:36:00;32.50;28.40
2158;DHT22;41972;48.774;9.282;2023-08-24T11:38:35;32.60;30.50
2158;DHT22;41972;48.774;9.282;2023-08-24T11:41:13;32.10;30.00
2158;DHT22;41972;48.774;9.282;2023-08-24T11:43:41;32.20;38.70
2158;DHT22;41972;48.774;9.282;2023-08-24T11:46:07;32.70;36.30
2158;DHT22;41972;48.774;9.282;2023-08-24T11:48:33;33.00;32.30
2158;DHT22;41972;48.774;9.282;2023-08-24T11:50:59;33.00;33.30
2158;DHT22;41972;48.774;9.282;2023-08-24T11:53:24;32.60;36.10
2158;DHT22;41972;48.774;9.282;2023-08-24T11:55:54;32.50;35.90
2158;DHT22;41972;48.774;9.282;2023-08-24T11:58:20;32.80;36.90
2158;DHT22;41972;48.774;9.282;2023-08-24T12:00:46;33.00;38.30
2158;DHT22;41972;48.774;9.282;2023-08-24T12:03:12;32.70;44.40
2158;DHT22;41972;48.774;9.282;2023-08-24T12:05:38;32.90;38.80
2158;DHT22;41972;48.774;9.282;2023-08-24T12:08:05;32.90;41.90
2158;DHT22;41972;48.774;9.282;2023-08-24T12:10:31;33.20;45.00
2158;DHT22;41972;48.774;9.282;2023-08-24T12:13:04;33.10;39.90
2158;DHT22;41972;48.774;9.282;2023-08-24T12:15:30;33.30;42.70
2158;DHT22;41972;48.774;9.282;2023-08-24T12:18:07;33.50;44.10
2158;DHT22;41972;48.774;9.282;2023-08-24T12:20:32;33.30;46.60
2158;DHT22;41972;48.774;9.282;2023-08-24T12:22:58;33.40;48.10
2158;DHT22;41972;48.774;9.282;2023-08-24T12:25:24;33.50;41.10
2158;DHT22;41972;48.774;9.282;2023-08-24T12:28:09;33.30;39.20
2158;DHT22;41972;48.774;9.282;2023-08-24T12:30:52;33.00;43.60
2158;DHT22;41972;48.774;9.282;2023-08-24T12:33:36;33.20;43.60
2158;DHT22;41972;48.774;9.282;2023-08-24T12:36:02;33.20;39.70
2158;DHT22;41972;48.774;9.282;2023-08-24T12:38:27;33.30;52.90
2158;DHT22;41972;48.774;9.282;2023-08-24T12:40:53;33.30;44.20
2158;DHT22;41972;48.774;9.282;2023-08-24T12:43:19;33.50;42.80
2158;DHT22;41972;48.774;9.282;2023-08-24T12:45:45;33.20;41.80
2158;DHT22;41972;48.774;9.282;2023-08-24T12:48:11;32.90;42.30
2158;DHT22;41972;48.774;9.282;2023-08-24T12:50:38;33.10;40.20
2158;DHT22;41972;48.774;9.282;2023-08-24T12:53:04;33.50;41.90
2158;DHT22;41972;48.774;9.282;2023-08-24T12:55:32;33.40;42.50
2158;DHT22;41972;48.774;9.282;2023-08-24T12:57:58;33.70;51.90
2158;DHT22;41972;48.774;9.282;2023-08-24T13:00:24;33.60;43.90
2158;DHT22;41972;48.774;9.282;2023-08-24T13:02:50;34.00;43.70
2158;DHT22;41972;48.774;9.282;2023-08-24T13:05:16;33.40;39.60
2158;DHT22;41972;48.774;9.282;2023-08-24T13:07:42;33.20;40.40
2158;DHT22;41972;48.774;9.282;2023-08-24T13:10:08;33.10;39.50
2158;DHT22;41972;48.774;9.282;2023-08-24T13:12:34;33.50;44.60
2158;DHT22;41972;48.774;9.282;2023-08-24T13:15:01;33.80;37.80
2158;DHT22;41972;48.774;9.282;2023-08-24T13:17:27;34.00;36.30
2158;DHT22;41972;48.774;9.282;2023-08-24T13:19:53;33.30;36.60
2158;DHT22;41972;48.774;9.282;2023-08-24T13:22:18;33.50;41.80
2158;DHT22;41972;48.774;9.282;2023-08-24T13:24:44;34.10;40.50
2158;DHT22;41972;48.774;9.282;2023-08-24T13:27:10;34.70;37.90
2158;DHT22;41972;48.774;9.282;2023-08-24T13:29:40;34.80;35.60
2158;DHT22;41972;48.774;9.282;2023-08-24T13:32:06;35.00;44.80
2158;DHT22;41972;48.774;9.282;2023-08-24T13:34:32;34.90;36.60
2158;DHT22;41972;48.774;9.282;2023-08-24T13:36:57;34.90;34.10
2158;DHT22;41972;48.774;9.282;2023-08-24T13:39:26;34.70;32.50
2158;DHT22;41972;48.774;9.282;2023-08-24T13:41:56;34.90;35.80
2158;DHT22;41972;48.774;9.282;2023-08-24T13:44:22;34.80;38.30
2158;DHT22;41972;48.774;9.282;2023-08-24T13:46:48;34.80;31.60
2158;DHT22;41972;48.774;9.282;2023-08-24T13:49:13;34.10;37.00
2158;DHT22;41972;48.774;9.282;2023-08-24T13:51:39;34.30;37.80
2158;DHT22;41972;48.774;9.282;2023-08-24T13:54:15;34.50;36.30
2158;DHT22;41972;48.774;9.282;2023-08-24T13:56:41;34.70;33.50
2158;DHT22;41972;48.774;9.282;2023-08-24T13:59:07;34.60;27.90
2158;DHT22;41972;48.774;9.282;2023-08-24T14:01:33;34.30;27.90
2158;DHT22;41972;48.774;9.282;2023-08-24T14:03:58;34.30;34.60
2158;DHT22;41972;48.774;9.282;2023-08-24T14:06:24;34.40;29.90
2158;DHT22;41972;48.774;9.282;2023-08-24T14:08:49;34.40;28.40
2158;DHT22;41972;48.774;9.282;2023-08-24T14:11:15;34.30;30.60
2158;DHT22;41972;48.774;9.282;2023-08-24T14:13:42;34.40;33.20
2158;DHT22;41972;48.774;9.282;2023-08-24T14:16:07;34.70;29.10
2158;DHT22;41972;48.774;9.282;2023-08-24T14:18:33;34.70;29.10
2158;DHT22;41972;48.774;9.282;2023-08-24T14:21:01;34.60;29.00
2158;DHT22;41972;48.774;9.282;2023-08-24T14:23:27;34.50;27.40
2158;DHT22;41972;48.774;9.282;2023-08-24T14:25:54;34.80;28.00
2158;DHT22;41972;48.774;9.282;2023-08-24T14:28:21;35.10;26.20
2158;DHT22;41972;48.774;9.282;2023-08-24T14:30:50;34.50;24.90
2158;DHT22;41972;48.774;9.282;2023-08-24T14:33:16;34.70;23.60
2158;DHT22;41972;48.774;9.282;2023-08-24T14:35:50;34.40;28.30
2158;DHT22;41972;48.774;9.282;2023-08-24T14:38:15;34.50;28.00
2158;DHT22;41972;48.774;9.282;2023-08-24T14:40:41;34.60;27.80
2158;DHT22;41972;48.774;9.282;2023-08-24T14:43:06;34.70;30.70
2158;DHT22;41972;48.774;9.282;2023-08-24T14:45:32;34.80;26.50
2158;DHT22;41972;48.774;9.282;2023-08-24T14:47:58;34.50;26.90
2158;DHT22;41972;48.774;9.282;2023-08-24T14:50:24;34.20;26.90
2158;DHT22;41972;48.774;9.282;2023-08-24T14:52:50;34.10;30.10
2158;DHT22;41972;48.774;9.282;2023-08-24T14:55:15;33.20;30.00
2158;DHT22;41972;48.774;9.282;2023-08-24T14:57:43;32.40;27.50
2158;DHT22;41972;48.774;9.282;2023-08-24T15:00:09;32.50;30.00
2158;DHT22;41972;48.774;9.282;2023-08-24T15:02:35;32.50;30.00
2158;DHT22;41972;48.774;9.282;2023-08-24T15:05:03;32.30;30.20
2158;DHT22;41972;48.774;9.282;2023-08-24T15:07:30;32.10;27.20
2158;DHT22;41972;48.774;9.282;2023-08-24T15:09:56;31.80;31.30
2158;DHT22;41972;48.774;9.282;2023-08-24T15:12:21;30.50;42.50
2158;DHT22;41972;48.774;9.282;2023-08-24T15:15:01;29.70;68.80
2158;DHT22;41972;48.774;9.282;2023-08-24T15:17:31;27.70;99.90
2158;DHT22;41972;48.774;9.282;2023-08-24T15:19:57;26.80;99.90
2158;DHT22;41972;48.774;9.282;2023-08-24T15:22:23;26.30;99.90
2158;DHT22;41972;48.774;9.282;2023-08-24T15:24:49;25.90;99.90
2158;DHT22;41972;48.774;9.282;2023-08-24T15:27:15;25.60;99.90
2158;DHT22;41972;48.774;9.282;2023-08-24T15:29:40;25.80;99.90
2158;DHT22;41972;48.774;9.282;2023-08-24T15:32:06;25.70;99.90
2158;DHT22;41972;48.774;9.282;2023-08-24T15:34:31;25.90;99.90
2158;DHT22;41972;48.774;9.282;2023-08-24T15:36:57;25.90;99.90
2158;DHT22;41972;48.774;9.282;2023-08-24T15:39:23;25.60;99.90
2158;DHT22;41972;48.774;9.282;2023-08-24T15:41:49;25.40;99.90
2158;DHT22;41972;48.774;9.282;2023-08-24T15:44:14;25.30;99.90
2158;DHT22;41972;48.774;9.282;2023-08-24T15:46:40;25.10;99.90
2158;DHT22;41972;48.774;9.282;2023-08-24T15:49:05;24.70;99.90
2158;DHT22;41972;48.774;9.282;2023-08-24T15:51:31;24.20;99.90
2158;DHT22;41972;48.774;9.282;2023-08-24T15:53:56;24.10;99.90
2158;DHT22;41972;48.774;9.282;2023-08-24T15:56:22;23.90;99.90
2158;DHT22;41972;48.774;9.282;2023-08-24T15:58:48;23.90;99.90